createdAt,value
2024-04-23T00:02:15.902Z,97761.56
2024-04-23T00:04:43.451Z,97760.44
2024-04-23T00:07:13.646Z,97761.00
2024-04-23T00:09:41.169Z,97752.59
2024-04-23T00:12:11.529Z,97756.78
2024-04-23T00:14:39.013Z,97761.13
2024-04-23T00:17:11.756Z,97759.69
2024-04-23T00:19:39.234Z,97750.56
2024-04-23T00:22:09.357Z,97748.16
2024-04-23T00:24:36.843Z,97746.50
2024-04-23T00:27:07.014Z,97755.50
2024-04-23T00:29:34.474Z,97751.44
2024-04-23T00:32:04.659Z,97744.84
2024-04-23T00:34:34.967Z,97740.63
2024-04-23T00:37:05.121Z,97744.84
2024-04-23T00:39:32.604Z,97749.09
2024-04-23T00:42:03.334Z,97745.91
2024-04-23T00:44:30.814Z,97744.41
2024-04-23T00:47:01.239Z,97743.75
2024-04-23T00:49:29.010Z,97744.69
2024-04-23T00:52:02.784Z,97732.88
2024-04-23T00:54:32.319Z,97733.56
2024-04-23T00:57:05.092Z,97725.84
2024-04-23T00:59:32.827Z,97718.22
2024-04-23T01:02:03.809Z,97728.16
2024-04-23T01:04:31.498Z,97723.16
2024-04-23T01:07:04.534Z,97731.09
2024-04-23T01:09:32.203Z,97716.81
2024-04-23T01:12:02.951Z,97718.72
2024-04-23T01:14:31.302Z,97717.56
2024-04-23T01:17:02.856Z,97720.53
2024-04-23T01:19:40.986Z,97719.41
2024-04-23T01:22:23.189Z,97716.34
2024-04-23T01:25:17.087Z,97712.09
2024-04-23T01:27:52.387Z,97718.88
2024-04-23T01:30:20.430Z,97706.28
2024-04-23T01:32:53.026Z,97703.94
2024-04-23T01:35:21.736Z,97701.59
2024-04-23T01:37:55.676Z,97699.06
2024-04-23T01:40:23.950Z,97699.81
2024-04-23T01:42:58.737Z,97694.88
2024-04-23T01:45:26.799Z,97694.28
2024-04-23T01:47:57.570Z,97692.13
2024-04-23T01:50:25.211Z,97683.97
2024-04-23T01:52:55.585Z,97685.94
2024-04-23T01:55:23.390Z,97681.22
2024-04-23T01:57:56.328Z,97677.28
2024-04-23T02:00:26.478Z,97681.75
2024-04-23T02:02:58.354Z,97681.81
2024-04-23T02:05:28.037Z,97685.31
2024-04-23T02:07:58.856Z,97676.19
2024-04-23T02:10:26.865Z,97689.81
2024-04-23T02:13:00.746Z,97681.13
2024-04-23T02:15:28.266Z,97678.31
2024-04-23T02:17:58.500Z,97687.38
2024-04-23T02:20:26.131Z,97684.53
2024-04-23T02:22:56.570Z,97681.78
2024-04-23T02:25:24.487Z,97691.06
2024-04-23T02:27:54.654Z,97689.50
2024-04-23T02:30:24.832Z,97694.59
2024-04-23T02:32:55.203Z,97694.63
2024-04-23T02:35:22.804Z,97698.00
2024-04-23T02:37:53.076Z,97705.81
2024-04-23T02:40:21.086Z,97700.09
2024-04-23T02:42:51.253Z,97698.47
2024-04-23T02:45:18.784Z,97696.06
2024-04-23T02:47:51.679Z,97700.53
2024-04-23T02:50:19.273Z,97709.00
2024-04-23T02:52:49.442Z,97708.94
2024-04-23T02:55:16.973Z,97707.19
2024-04-23T02:57:47.121Z,97699.50
2024-04-23T03:00:15.890Z,97694.31
2024-04-23T03:02:46.080Z,97685.84
2024-04-23T03:05:16.335Z,97691.00
2024-04-23T03:07:46.579Z,97680.16
2024-04-23T03:10:14.367Z,97675.97
2024-04-23T03:12:44.514Z,97673.31
2024-04-23T03:15:12.139Z,97669.06
2024-04-23T03:17:42.338Z,97669.94
2024-04-23T03:20:10.489Z,97664.00
2024-04-23T03:22:43.365Z,97669.69
2024-04-23T03:25:10.920Z,97666.19
2024-04-23T03:27:41.076Z,97667.94
2024-04-23T03:30:09.402Z,97661.13
2024-04-23T03:32:39.815Z,97664.28
2024-04-23T03:35:07.879Z,97654.16
2024-04-23T03:37:38.072Z,97654.16
2024-04-23T03:40:12.747Z,97661.69
2024-04-23T03:42:42.929Z,97660.66
2024-04-23T03:45:13.098Z,97657.03
2024-04-23T03:47:43.758Z,97659.44
2024-04-23T03:50:11.375Z,97661.84
2024-04-23T03:52:41.564Z,97660.16
2024-04-23T03:55:11.754Z,97650.09
2024-04-23T03:57:41.922Z,97655.34
2024-04-23T04:00:10.619Z,97656.78
2024-04-23T04:02:56.507Z,97652.81
2024-04-23T04:05:42.493Z,97650.31
2024-04-23T04:08:12.671Z,97650.91
2024-04-23T04:10:45.594Z,97643.41
2024-04-23T04:13:21.494Z,97659.31
2024-04-23T04:15:51.963Z,97652.63
2024-04-23T04:18:22.629Z,97647.69
2024-04-23T04:20:50.281Z,97649.31
2024-04-23T04:23:20.455Z,97654.50
2024-04-23T04:25:51.563Z,97651.03
2024-04-23T04:28:21.774Z,97642.69
2024-04-23T04:30:49.359Z,97642.41
2024-04-23T04:33:19.647Z,97637.09
2024-04-23T04:35:47.200Z,97634.41
2024-04-23T04:38:17.588Z,97639.44
2024-04-23T04:40:45.195Z,97640.16
2024-04-23T04:43:18.092Z,97636.69
2024-04-23T04:45:45.606Z,97633.09
2024-04-23T04:48:15.983Z,97630.38
2024-04-23T04:50:43.644Z,97634.50
2024-04-23T04:53:13.807Z,97633.44
2024-04-23T04:55:41.461Z,97639.06
2024-04-23T04:58:11.627Z,97649.66
2024-04-23T05:00:44.453Z,97642.31
2024-04-23T05:03:15.159Z,97641.00
2024-04-23T05:05:42.736Z,97646.44
2024-04-23T05:08:13.024Z,97651.78
2024-04-23T05:10:40.614Z,97641.91
2024-04-23T05:13:11.326Z,97643.88
2024-04-23T05:15:41.558Z,97640.13
2024-04-23T05:18:11.872Z,97638.28
2024-04-23T05:20:39.906Z,97642.59
2024-04-23T05:23:10.085Z,97641.53
2024-04-23T05:25:37.645Z,97651.94
2024-04-23T05:28:08.628Z,97648.88
2024-04-23T05:30:54.598Z,97646.78
2024-04-23T05:33:27.552Z,97645.50
2024-04-23T05:35:57.752Z,97639.25
2024-04-23T05:38:28.594Z,97639.13
2024-04-23T05:40:58.903Z,97641.50
2024-04-23T05:43:29.114Z,97637.94
2024-04-23T05:45:59.290Z,97649.31
2024-04-23T05:49:25.498Z,97651.13
2024-04-23T05:52:51.711Z,97648.63
2024-04-23T05:55:44.910Z,97654.78
2024-04-23T05:58:14.427Z,97643.88
2024-04-23T06:00:44.650Z,97646.72
2024-04-23T06:03:12.181Z,97651.09
2024-04-23T06:05:42.345Z,97649.91
2024-04-23T06:08:10.997Z,97646.97
2024-04-23T06:10:44.038Z,97643.09
2024-04-23T06:13:11.660Z,97645.31
2024-04-23T06:15:41.845Z,97646.00
2024-04-23T06:18:09.459Z,97643.44
2024-04-23T06:20:39.684Z,97635.91
2024-04-23T06:23:07.260Z,97634.53
2024-04-23T06:25:39.231Z,97632.59
2024-04-23T06:28:10.336Z,97641.88
2024-04-23T06:30:40.471Z,97638.53
2024-04-23T06:33:08.043Z,97630.91
2024-04-23T06:35:38.261Z,97636.91
2024-04-23T06:38:05.975Z,97631.13
2024-04-23T06:40:36.292Z,97629.56
2024-04-23T06:43:06.530Z,97618.66
2024-04-23T06:45:36.767Z,97609.25
2024-04-23T06:48:07.434Z,97610.00
2024-04-23T06:50:34.965Z,97600.59
2024-04-23T06:53:07.768Z,97603.13
2024-04-23T06:55:35.704Z,97605.75
2024-04-23T06:58:05.944Z,97610.66
2024-04-23T07:00:36.881Z,97613.94
2024-04-23T07:03:07.938Z,97606.63
2024-04-23T07:05:35.496Z,97602.69
2024-04-23T07:08:05.793Z,97602.22
2024-04-23T07:10:34.038Z,97604.75
2024-04-23T07:13:04.233Z,97596.16
2024-04-23T07:15:31.767Z,97597.38
2024-04-23T07:18:07.182Z,97601.00
2024-04-23T07:20:34.890Z,97591.13
2024-04-23T07:23:05.121Z,97593.28
2024-04-23T07:25:32.818Z,97592.16
2024-04-23T07:28:03.008Z,97599.94
2024-04-23T07:30:30.536Z,97591.72
2024-04-23T07:33:03.400Z,97594.47
2024-04-23T07:35:31.107Z,97597.31
2024-04-23T07:38:01.370Z,97599.94
2024-04-23T07:40:29.105Z,97596.28
2024-04-23T07:42:59.266Z,97589.66
2024-04-23T07:45:26.829Z,97592.22
2024-04-23T07:47:57.330Z,97592.63
2024-04-23T07:50:27.940Z,97598.56
2024-04-23T07:52:58.351Z,97586.81
2024-04-23T07:55:25.901Z,97584.19
2024-04-23T07:57:56.038Z,97575.78
2024-04-23T08:00:25.478Z,97579.88
2024-04-23T08:02:59.174Z,97580.19
2024-04-23T08:05:29.588Z,97580.69
2024-04-23T08:07:59.738Z,97572.72
2024-04-23T08:10:27.316Z,97569.03
2024-04-23T08:12:57.467Z,97560.88
2024-04-23T08:15:24.980Z,97551.13
2024-04-23T08:17:55.333Z,97555.94
2024-04-23T08:20:23.973Z,97555.06
2024-04-23T08:23:01.967Z,97553.69
2024-04-23T08:25:29.506Z,97558.63
2024-04-23T08:27:59.677Z,97566.41
2024-04-23T08:30:27.201Z,97552.19
2024-04-23T08:32:57.497Z,97555.81
2024-04-23T08:35:25.689Z,97560.22
2024-04-23T08:37:57.961Z,97558.13
2024-04-23T08:40:28.687Z,97550.75
2024-04-23T08:43:08.901Z,97558.56
2024-04-23T08:45:39.322Z,97559.25
2024-04-23T08:48:11.320Z,97556.69
2024-04-23T08:50:39.787Z,97553.78
2024-04-23T08:53:11.851Z,97546.44
2024-04-23T08:55:45.982Z,97544.63
2024-04-23T08:58:17.432Z,97548.06
2024-04-23T09:00:53.474Z,97535.88
2024-04-23T09:03:29.649Z,97539.38
2024-04-23T09:05:57.577Z,97538.38
2024-04-23T09:08:28.088Z,97537.03
2024-04-23T09:11:00.519Z,97523.72
2024-04-23T09:13:30.853Z,97532.31
2024-04-23T09:15:59.333Z,97518.69
2024-04-23T09:18:32.589Z,97519.47
2024-04-23T09:21:03.413Z,97505.94
2024-04-23T09:23:35.069Z,97502.41
2024-04-23T09:26:06.463Z,97510.13
2024-04-23T09:28:38.276Z,97502.53
2024-04-23T09:31:08.782Z,97486.59
2024-04-23T09:33:39.006Z,97482.91
2024-04-23T09:36:10.229Z,97478.84
2024-04-23T09:38:40.995Z,97476.94
2024-04-23T09:41:11.884Z,97478.69
2024-04-23T09:43:42.555Z,97473.09
2024-04-23T09:46:11.398Z,97470.97
2024-04-23T09:48:43.856Z,97473.97
2024-04-23T09:51:11.431Z,97473.31
2024-04-23T09:53:43.253Z,97464.38
2024-04-23T09:56:15.516Z,97467.31
2024-04-23T09:58:45.804Z,97462.59
2024-04-23T10:01:16.733Z,97459.13
2024-04-23T10:03:51.676Z,97455.47
2024-04-23T10:06:24.818Z,97455.59
2024-04-23T10:09:05.865Z,97451.91
2024-04-23T10:11:44.842Z,97445.44
2024-04-23T10:14:24.449Z,97439.03
2024-04-23T10:17:01.739Z,97435.78
2024-04-23T10:19:36.249Z,97437.16
2024-04-23T10:22:06.861Z,97427.09
2024-04-23T10:24:37.412Z,97432.84
2024-04-23T10:27:08.961Z,97430.66
2024-04-23T10:29:40.471Z,97431.72
2024-04-23T10:32:12.475Z,97419.22
2024-04-23T10:34:45.658Z,97418.72
2024-04-23T10:37:16.432Z,97413.94
2024-04-23T10:39:48.363Z,97410.56
2024-04-23T10:42:20.678Z,97407.16
2024-04-23T10:44:51.582Z,97407.97
2024-04-23T10:47:19.237Z,97404.47
2024-04-23T10:49:55.195Z,97405.13
2024-04-23T10:52:23.554Z,97404.28
2024-04-23T10:54:54.294Z,97399.25
2024-04-23T10:57:26.943Z,97391.28
2024-04-23T10:59:57.238Z,97392.38
2024-04-23T11:02:27.258Z,97382.88
2024-04-23T11:04:58.467Z,97383.41
2024-04-23T11:07:28.480Z,97382.84
2024-04-23T11:10:01.881Z,97377.13
2024-04-23T11:12:37.795Z,97367.66
2024-04-23T11:15:17.890Z,97367.44
2024-04-23T11:17:45.565Z,97363.84
2024-04-23T11:20:15.937Z,97366.59
2024-04-23T11:22:51.092Z,97359.50
2024-04-23T11:25:35.255Z,97358.69
2024-04-23T11:28:06.611Z,97361.16
2024-04-23T11:30:37.179Z,97352.03
2024-04-23T11:33:07.886Z,97358.84
2024-04-23T11:35:39.980Z,97350.25
2024-04-23T11:38:10.209Z,97352.47
2024-04-23T11:40:37.813Z,97348.88
2024-04-23T11:43:10.719Z,97340.19
2024-04-23T11:45:38.816Z,97341.63
2024-04-23T11:48:09.883Z,97337.31
2024-04-23T11:50:37.550Z,97330.59
2024-04-23T11:53:08.459Z,97331.97
2024-04-23T11:55:36.438Z,97340.78
2024-04-23T11:58:07.145Z,97333.31
2024-04-23T12:00:39.684Z,97339.13
2024-04-23T12:03:10.130Z,97329.06
2024-04-23T12:05:39.176Z,97333.00
2024-04-23T12:08:10.066Z,97328.75
2024-04-23T12:10:41.721Z,97328.25
2024-04-23T12:13:09.434Z,97327.78
2024-04-23T12:15:42.349Z,97328.50
2024-04-23T12:18:10.051Z,97320.22
2024-04-23T12:20:41.393Z,97310.69
2024-04-23T12:23:12.290Z,97317.94
2024-04-23T12:25:44.497Z,97309.81
2024-04-23T12:28:12.626Z,97301.19
2024-04-23T12:30:46.625Z,97301.63
2024-04-23T12:33:15.380Z,97300.56
2024-04-23T12:35:46.258Z,97296.78
2024-04-23T12:38:14.303Z,97291.53
2024-04-23T12:40:45.774Z,97286.22
2024-04-23T12:43:14.840Z,97282.00
2024-04-23T12:45:47.977Z,97288.19
2024-04-23T12:48:15.644Z,97289.50
2024-04-23T12:50:45.870Z,97279.91
2024-04-23T12:53:13.850Z,97273.72
2024-04-23T12:55:44.496Z,97272.28
2024-04-23T12:58:12.165Z,97272.94
2024-04-23T13:00:42.403Z,97265.06
2024-04-23T13:03:15.347Z,97273.09
2024-04-23T13:05:46.982Z,97264.56
2024-04-23T13:08:17.298Z,97257.50
2024-04-23T13:10:45.002Z,97256.44
2024-04-23T13:13:15.600Z,97248.19
2024-04-23T13:15:46.505Z,97230.69
2024-04-23T13:18:19.504Z,97235.59
2024-04-23T13:20:47.106Z,97234.22
2024-04-23T13:23:17.391Z,97231.97
2024-04-23T13:25:44.996Z,97226.06
2024-04-23T13:28:15.267Z,97223.72
2024-04-23T13:30:42.774Z,97218.41
2024-04-23T13:33:13.001Z,97218.50
2024-04-23T13:35:43.218Z,97225.84
2024-04-23T13:38:13.912Z,97217.66
2024-04-23T13:40:41.517Z,97215.25
2024-04-23T13:43:15.233Z,97208.16
2024-04-23T13:45:45.546Z,97215.69
2024-04-23T13:48:13.115Z,97218.78
2024-04-23T13:50:46.038Z,97207.03
2024-04-23T13:53:13.606Z,97205.97
2024-04-23T13:55:43.746Z,97208.66
2024-04-23T13:58:11.302Z,97205.19
2024-04-23T14:00:41.508Z,97204.91
2024-04-23T14:03:09.091Z,97195.00
2024-04-23T14:05:39.898Z,97194.47
2024-04-23T14:08:10.358Z,97197.03
2024-04-23T14:10:40.572Z,97196.41
2024-04-23T14:13:08.100Z,97201.94
2024-04-23T14:15:38.321Z,97191.09
2024-04-23T14:18:06.313Z,97188.03
2024-04-23T14:20:37.578Z,97190.13
2024-04-23T14:23:05.449Z,97187.75
2024-04-23T14:25:38.412Z,97184.09
2024-04-23T14:28:10.849Z,97183.00
2024-04-23T14:30:41.049Z,97184.41
2024-04-23T14:33:08.644Z,97179.81
2024-04-23T14:35:40.327Z,97181.41
2024-04-23T14:38:07.909Z,97178.69
2024-04-23T14:40:40.794Z,97190.59
2024-04-23T14:43:08.364Z,97183.84
2024-04-23T14:45:38.692Z,97176.56
2024-04-23T14:48:07.432Z,97174.66
2024-04-23T14:50:38.425Z,97179.00
2024-04-23T14:53:05.987Z,97172.91
2024-04-23T14:55:36.198Z,97175.22
2024-04-23T14:58:06.432Z,97176.94
2024-04-23T15:00:37.357Z,97178.00
2024-04-23T15:03:05.602Z,97172.16
2024-04-23T15:05:35.780Z,97164.16
2024-04-23T15:08:03.708Z,97167.50
2024-04-23T15:10:34.798Z,97175.03
2024-04-23T15:13:02.325Z,97176.94
2024-04-23T15:15:35.097Z,97185.31
2024-04-23T15:18:02.721Z,97184.47
2024-04-23T15:20:32.909Z,97189.13
2024-04-23T15:23:00.493Z,97186.28
2024-04-23T15:25:31.506Z,97187.88
2024-04-23T15:27:59.338Z,97186.16
2024-04-23T15:30:29.772Z,97182.28
2024-04-23T15:33:00.205Z,97182.44
2024-04-23T15:35:30.555Z,97184.50
2024-04-23T15:37:58.223Z,97188.94
2024-04-23T15:40:28.493Z,97186.72
2024-04-23T15:42:56.031Z,97184.09
2024-04-23T15:45:26.214Z,97190.03
2024-04-23T15:47:54.897Z,97187.09
2024-04-23T15:50:27.867Z,97181.97
2024-04-23T15:52:55.465Z,97186.53
2024-04-23T15:55:25.646Z,97188.97
2024-04-23T15:57:53.173Z,97180.81
2024-04-23T16:00:23.395Z,97186.19
2024-04-23T16:02:51.054Z,97183.44
2024-04-23T16:05:21.408Z,97181.91
2024-04-23T16:07:54.258Z,97184.84
2024-04-23T16:10:21.816Z,97181.38
2024-04-23T16:12:54.607Z,97177.88
2024-04-23T16:15:23.024Z,97177.41
2024-04-23T16:17:53.318Z,97172.63
2024-04-23T16:20:20.953Z,97171.00
2024-04-23T16:22:53.888Z,97172.19
2024-04-23T16:25:21.411Z,97174.06
2024-04-23T16:27:52.360Z,97169.16
2024-04-23T16:30:19.882Z,97165.97
2024-04-23T16:32:50.112Z,97166.72
2024-04-23T16:35:17.827Z,97168.78
2024-04-23T16:37:48.167Z,97166.94
2024-04-23T16:40:18.514Z,97164.38
2024-04-23T16:42:48.758Z,97170.91
2024-04-23T16:45:16.301Z,97174.63
2024-04-23T16:47:46.487Z,97168.16
2024-04-23T16:50:14.290Z,97174.19
2024-04-23T16:52:44.753Z,97161.50
2024-04-23T16:55:12.388Z,97162.53
2024-04-23T16:57:45.369Z,97166.19
2024-04-23T17:00:14.366Z,97168.94
2024-04-23T17:02:44.567Z,97170.25
2024-04-23T17:05:12.217Z,97163.13
2024-04-23T17:07:42.464Z,97160.00
2024-04-23T17:10:10.529Z,97160.34
2024-04-23T17:12:40.681Z,97161.63
2024-04-23T17:15:10.975Z,97162.78
2024-04-23T17:17:41.340Z,97160.94
2024-04-23T17:20:13.753Z,97149.97
2024-04-23T17:22:42.409Z,97163.97
2024-04-23T17:25:12.716Z,97165.13
2024-04-23T17:27:40.318Z,97168.00
2024-04-23T17:30:14.279Z,97156.22
2024-04-23T17:32:42.018Z,97159.03
2024-04-23T17:35:13.375Z,97161.09
2024-04-23T17:37:42.105Z,97161.19
2024-04-23T17:40:13.511Z,97157.97
2024-04-23T17:42:41.062Z,97159.81
2024-04-23T17:45:14.470Z,97159.91
2024-04-23T17:47:42.296Z,97152.47
2024-04-23T17:50:13.199Z,97152.47
2024-04-23T17:52:40.823Z,97153.41
2024-04-23T17:55:11.072Z,97153.41
2024-04-23T17:57:38.576Z,97145.97
2024-04-23T18:00:10.671Z,97152.22
2024-04-23T18:02:40.948Z,97148.25
2024-04-23T18:05:11.167Z,97151.75
2024-04-23T18:07:38.756Z,97148.72
2024-04-23T18:10:10.279Z,97150.69
2024-04-23T18:12:37.857Z,97149.41
2024-04-23T18:15:08.998Z,97146.97
2024-04-23T18:17:37.022Z,97150.53
2024-04-23T18:20:11.553Z,97145.66
2024-04-23T18:22:39.110Z,97146.81
2024-04-23T18:25:09.565Z,97148.66
2024-04-23T18:27:37.208Z,97142.13
2024-04-23T18:30:08.488Z,97145.03
2024-04-23T18:32:36.190Z,97151.38
2024-04-23T18:35:09.463Z,97148.16
2024-04-23T18:37:37.799Z,97143.25
2024-04-23T18:40:09.098Z,97138.34
2024-04-23T18:42:37.699Z,97141.84
2024-04-23T18:45:09.406Z,97142.75
2024-04-23T18:47:37.093Z,97149.00
2024-04-23T18:50:11.812Z,97149.13
2024-04-23T18:52:39.581Z,97146.56
2024-04-23T18:55:10.408Z,97143.91
2024-04-23T18:57:37.952Z,97147.16
2024-04-23T19:00:10.260Z,97147.88
2024-04-23T19:02:37.901Z,97141.84
2024-04-23T19:05:11.091Z,97143.25
2024-04-23T19:07:38.713Z,97146.50
2024-04-23T19:10:12.261Z,97142.91
2024-04-23T19:12:39.786Z,97137.91
2024-04-23T19:15:10.166Z,97139.97
2024-04-23T19:17:37.820Z,97147.16
2024-04-23T19:20:13.787Z,97142.16
2024-04-23T19:22:41.498Z,97144.84
2024-04-23T19:25:11.892Z,97140.75
2024-04-23T19:27:39.460Z,97144.56
2024-04-23T19:30:11.554Z,97138.13
2024-04-23T19:32:39.272Z,97150.31
2024-04-23T19:35:12.249Z,97148.47
2024-04-23T19:37:39.807Z,97148.13
2024-04-23T19:40:11.628Z,97138.41
2024-04-23T19:42:39.791Z,97142.47
2024-04-23T19:45:10.960Z,97145.75
2024-04-23T19:47:39.302Z,97137.16
2024-04-23T19:50:12.465Z,97137.16
2024-04-23T19:52:40.163Z,97132.47
2024-04-23T19:55:10.955Z,97131.78
2024-04-23T19:57:57.114Z,97133.53
2024-04-23T20:00:28.415Z,97124.81
2024-04-23T20:02:58.585Z,97121.66
2024-04-23T20:05:31.482Z,97127.59
2024-04-23T20:08:01.761Z,97125.97
2024-04-23T20:10:32.034Z,97118.41
2024-04-23T20:13:02.415Z,97121.09
2024-04-23T20:15:32.574Z,97112.47
2024-04-23T20:18:03.697Z,97115.97
2024-04-23T20:20:36.548Z,97111.06
2024-04-23T20:23:08.854Z,97111.28
2024-04-23T20:25:44.223Z,97108.72
2024-04-23T20:28:15.114Z,97103.84
2024-04-23T20:30:45.326Z,97098.03
2024-04-23T20:33:15.557Z,97098.03
2024-04-23T20:35:48.417Z,97098.03
2024-04-23T20:38:18.659Z,97094.97
2024-04-23T20:40:48.894Z,97096.84
2024-04-23T20:43:19.151Z,97097.06
2024-04-23T20:45:46.682Z,97092.75
2024-04-23T20:48:19.504Z,97090.09
2024-04-23T20:50:54.945Z,97095.19
2024-04-23T20:53:26.079Z,97090.53
2024-04-23T20:55:56.359Z,97090.63
2024-04-23T20:58:26.586Z,97082.97
2024-04-23T21:00:56.798Z,97090.75
2024-04-23T21:03:26.989Z,97088.41
2024-04-23T21:05:59.755Z,97087.22
2024-04-23T21:08:30.035Z,97085.09
2024-04-23T21:11:00.298Z,97084.63
2024-04-23T21:13:31.965Z,97079.44
2024-04-23T21:16:02.670Z,97084.34
2024-04-23T21:18:32.887Z,97081.31
2024-04-23T21:21:05.813Z,97089.41
2024-04-23T21:23:36.003Z,97087.56
2024-04-23T21:26:06.440Z,97080.53
2024-04-23T21:28:34.080Z,97080.75
2024-04-23T21:31:04.968Z,97078.63
2024-04-23T21:33:35.771Z,97080.97
2024-04-23T21:36:10.140Z,97079.78
2024-04-23T21:38:45.821Z,97081.81
2024-04-23T21:41:18.184Z,97082.69
2024-04-23T21:43:49.104Z,97078.00
2024-04-23T21:46:19.685Z,97074.25
2024-04-23T21:48:50.124Z,97079.00
2024-04-23T21:51:24.750Z,97075.31
2024-04-23T21:53:56.159Z,97071.84
2024-04-23T21:56:26.344Z,97078.88
2024-04-23T21:58:56.610Z,97073.34
2024-04-23T22:01:26.945Z,97071.22
2024-04-23T22:03:57.261Z,97074.06
2024-04-23T22:06:30.081Z,97082.50
2024-04-23T22:09:00.212Z,97065.16
2024-04-23T22:11:30.489Z,97066.56
2024-04-23T22:14:00.748Z,97068.84
2024-04-23T22:16:30.954Z,97066.69
2024-04-23T22:18:58.492Z,97059.97
2024-04-23T22:21:31.322Z,97065.44
2024-04-23T22:24:01.539Z,97060.28
2024-04-23T22:26:31.700Z,97063.13
2024-04-23T22:29:01.895Z,97056.78
2024-04-23T22:31:29.619Z,97061.97
2024-04-23T22:33:59.769Z,97053.00
2024-04-23T22:36:32.598Z,97047.38
2024-04-23T22:39:02.761Z,97059.56
2024-04-23T22:41:32.922Z,97050.66
2024-04-23T22:44:03.103Z,97045.41
2024-04-23T22:46:33.486Z,97044.31
2024-04-23T22:49:04.249Z,97043.06
2024-04-23T22:51:37.111Z,97032.38
2024-04-23T22:54:07.639Z,97038.53
2024-04-23T22:56:37.817Z,97032.47
2024-04-23T22:59:08.045Z,97030.72
2024-04-23T23:01:38.425Z,97025.81
2024-04-23T23:04:09.144Z,97025.91
2024-04-23T23:06:39.394Z,97031.38
2024-04-23T23:09:09.897Z,97027.66
2024-04-23T23:11:40.188Z,97018.84
2024-04-23T23:14:10.463Z,97017.47
2024-04-23T23:16:41.116Z,97020.38
2024-04-23T23:19:11.317Z,97013.84
2024-04-23T23:21:44.151Z,97010.94
2024-04-23T23:24:14.285Z,97014.66
2024-04-23T23:26:44.455Z,97016.56
2024-04-23T23:29:14.727Z,97011.72
2024-04-23T23:31:42.325Z,97010.19
2024-04-23T23:34:12.512Z,97004.72
2024-04-23T23:36:45.574Z,97000.72
2024-04-23T23:39:15.803Z,97004.19
2024-04-23T23:41:45.985Z,96995.75
2024-04-23T23:44:16.233Z,97003.44
2024-04-23T23:46:46.560Z,96999.47
2024-04-23T23:49:16.813Z,96999.28
2024-04-23T23:51:49.732Z,96995.28
2024-04-23T23:54:21.217Z,96992.59
2024-04-23T23:56:51.576Z,96984.06
2024-04-23T23:59:21.764Z,96985.31
